sensor_id;sensor_type;location;lat;lon;timestamp;P1;durP1;ratioP1;P2;durP2;ratioP2
57443;SDS011;43289;52.962;6.196;2023-06-22T00:00:51;13.25;;;11.60;;
57443;SDS011;43289;52.962;6.196;2023-06-22T00:03:17;13.23;;;8.45;;
57443;SDS011;43289;52.962;6.196;2023-06-22T00:05:44;8.30;;;6.88;;
57443;SDS011;43289;52.962;6.196;2023-06-22T00:08:10;9.60;;;6.15;;
57443;SDS011;43289;52.962;6.196;2023-06-22T00:10:36;7.35;;;6.55;;
57443;SDS011;43289;52.962;6.196;2023-06-22T00:13:19;8.15;;;7.20;;
57443;SDS011;43289;52.962;6.196;2023-06-22T00:15:45;8.68;;;7.45;;
57443;SDS011;43289;52.962;6.196;2023-06-22T00:18:11;9.98;;;8.40;;
57443;SDS011;43289;52.962;6.196;2023-06-22T00:20:38;10.27;;;6.38;;
57443;SDS011;43289;52.962;6.196;2023-06-22T00:23:05;11.45;;;8.70;;
57443;SDS011;43289;52.962;6.196;2023-06-22T00:25:42;14.50;;;10.45;;
57443;SDS011;43289;52.962;6.196;2023-06-22T00:28:08;14.20;;;9.35;;
57443;SDS011;43289;52.962;6.196;2023-06-22T00:30:34;25.10;;;10.30;;
57443;SDS011;43289;52.962;6.196;2023-06-22T00:33:00;19.17;;;14.48;;
57443;SDS011;43289;52.962;6.196;2023-06-22T00:35:27;15.07;;;11.15;;
57443;SDS011;43289;52.962;6.196;2023-06-22T00:37:56;22.23;;;15.95;;
57443;SDS011;43289;52.962;6.196;2023-06-22T00:43:18;12.93;;;10.52;;
57443;SDS011;43289;52.962;6.196;2023-06-22T00:45:44;13.70;;;12.30;;
57443;SDS011;43289;52.962;6.196;2023-06-22T00:48:10;18.67;;;14.65;;
57443;SDS011;43289;52.962;6.196;2023-06-22T00:50:37;14.98;;;13.35;;
57443;SDS011;43289;52.962;6.196;2023-06-22T00:53:05;16.08;;;14.27;;
57443;SDS011;43289;52.962;6.196;2023-06-22T00:55:43;23.13;;;18.60;;
57443;SDS011;43289;52.962;6.196;2023-06-22T00:58:16;32.03;;;20.92;;
57443;SDS011;43289;52.962;6.196;2023-06-22T01:00:42;45.30;;;22.10;;
57443;SDS011;43289;52.962;6.196;2023-06-22T01:03:08;39.63;;;22.52;;
57443;SDS011;43289;52.962;6.196;2023-06-22T01:05:35;62.80;;;25.67;;
57443;SDS011;43289;52.962;6.196;2023-06-22T01:10:57;229.48;;;48.50;;
57443;SDS011;43289;52.962;6.196;2023-06-22T01:15:57;146.00;;;35.28;;
57443;SDS011;43289;52.962;6.196;2023-06-22T01:21:55;80.95;;;28.77;;
57443;SDS011;43289;52.962;6.196;2023-06-22T01:24:22;81.38;;;31.85;;
57443;SDS011;43289;52.962;6.196;2023-06-22T01:29:21;83.03;;;36.47;;
57443;SDS011;43289;52.962;6.196;2023-06-22T01:31:47;132.98;;;39.85;;
57443;SDS011;43289;52.962;6.196;2023-06-22T01:34:14;65.20;;;27.67;;
57443;SDS011;43289;52.962;6.196;2023-06-22T01:36:42;64.70;;;25.50;;
57443;SDS011;43289;52.962;6.196;2023-06-22T01:39:08;93.85;;;31.83;;
57443;SDS011;43289;52.962;6.196;2023-06-22T01:41:36;42.78;;;24.08;;
57443;SDS011;43289;52.962;6.196;2023-06-22T01:44:04;72.40;;;31.65;;
57443;SDS011;43289;52.962;6.196;2023-06-22T01:46:32;69.35;;;24.45;;
57443;SDS011;43289;52.962;6.196;2023-06-22T01:48:59;71.50;;;23.48;;
57443;SDS011;43289;52.962;6.196;2023-06-22T01:51:25;48.17;;;21.52;;
57443;SDS011;43289;52.962;6.196;2023-06-22T01:53:51;45.50;;;23.20;;
57443;SDS011;43289;52.962;6.196;2023-06-22T01:56:17;24.45;;;18.88;;
57443;SDS011;43289;52.962;6.196;2023-06-22T01:58:47;29.02;;;19.88;;
57443;SDS011;43289;52.962;6.196;2023-06-22T02:01:14;24.52;;;19.67;;
57443;SDS011;43289;52.962;6.196;2023-06-22T02:03:42;17.23;;;15.63;;
57443;SDS011;43289;52.962;6.196;2023-06-22T02:06:16;18.42;;;16.58;;
57443;SDS011;43289;52.962;6.196;2023-06-22T02:08:49;23.88;;;17.38;;
57443;SDS011;43289;52.962;6.196;2023-06-22T02:11:18;18.20;;;15.87;;
57443;SDS011;43289;52.962;6.196;2023-06-22T02:13:44;18.50;;;16.45;;
57443;SDS011;43289;52.962;6.196;2023-06-22T02:16:11;21.02;;;18.05;;
57443;SDS011;43289;52.962;6.196;2023-06-22T02:18:37;20.45;;;15.55;;
57443;SDS011;43289;52.962;6.196;2023-06-22T02:21:05;19.13;;;14.35;;
57443;SDS011;43289;52.962;6.196;2023-06-22T02:23:31;21.20;;;15.93;;
57443;SDS011;43289;52.962;6.196;2023-06-22T02:26:07;17.33;;;14.48;;
57443;SDS011;43289;52.962;6.196;2023-06-22T02:28:34;22.63;;;15.15;;
57443;SDS011;43289;52.962;6.196;2023-06-22T02:31:00;15.77;;;14.18;;
57443;SDS011;43289;52.962;6.196;2023-06-22T02:36:00;24.65;;;17.58;;
57443;SDS011;43289;52.962;6.196;2023-06-22T02:38:30;17.17;;;15.13;;
57443;SDS011;43289;52.962;6.196;2023-06-22T02:40:59;21.27;;;16.25;;
57443;SDS011;43289;52.962;6.196;2023-06-22T02:43:25;16.98;;;15.38;;
57443;SDS011;43289;52.962;6.196;2023-06-22T02:45:51;21.95;;;17.63;;
57443;SDS011;43289;52.962;6.196;2023-06-22T02:48:17;17.98;;;16.25;;
57443;SDS011;43289;52.962;6.196;2023-06-22T02:50:43;50.55;;;21.67;;
57443;SDS011;43289;52.962;6.196;2023-06-22T02:53:09;90.65;;;24.67;;
57443;SDS011;43289;52.962;6.196;2023-06-22T02:58:26;39.25;;;19.75;;
57443;SDS011;43289;52.962;6.196;2023-06-22T03:00:52;49.90;;;22.33;;
57443;SDS011;43289;52.962;6.196;2023-06-22T03:03:21;55.22;;;23.45;;
57443;SDS011;43289;52.962;6.196;2023-06-22T03:05:47;40.80;;;21.30;;
57443;SDS011;43289;52.962;6.196;2023-06-22T03:08:13;55.65;;;23.38;;
57443;SDS011;43289;52.962;6.196;2023-06-22T03:10:39;34.85;;;20.95;;
57443;SDS011;43289;52.962;6.196;2023-06-22T03:13:05;59.28;;;26.13;;
57443;SDS011;43289;52.962;6.196;2023-06-22T03:15:31;142.20;;;33.28;;
57443;SDS011;43289;52.962;6.196;2023-06-22T03:21:30;164.40;;;48.67;;
57443;SDS011;43289;52.962;6.196;2023-06-22T03:23:57;80.15;;;34.00;;
57443;SDS011;43289;52.962;6.196;2023-06-22T03:26:24;46.92;;;24.33;;
57443;SDS011;43289;52.962;6.196;2023-06-22T03:28:51;93.97;;;31.00;;
57443;SDS011;43289;52.962;6.196;2023-06-22T03:31:17;90.80;;;32.75;;
57443;SDS011;43289;52.962;6.196;2023-06-22T03:33:46;37.05;;;23.52;;
57443;SDS011;43289;52.962;6.196;2023-06-22T03:36:13;58.80;;;28.83;;
57443;SDS011;43289;52.962;6.196;2023-06-22T03:38:41;64.78;;;28.15;;
57443;SDS011;43289;52.962;6.196;2023-06-22T03:41:07;29.38;;;22.75;;
57443;SDS011;43289;52.962;6.196;2023-06-22T03:43:33;53.08;;;25.02;;
57443;SDS011;43289;52.962;6.196;2023-06-22T03:45:59;39.78;;;24.00;;
57443;SDS011;43289;52.962;6.196;2023-06-22T03:48:25;41.88;;;24.30;;
57443;SDS011;43289;52.962;6.196;2023-06-22T03:50:51;106.93;;;37.55;;
57443;SDS011;43289;52.962;6.196;2023-06-22T03:53:17;119.28;;;36.60;;
57443;SDS011;43289;52.962;6.196;2023-06-22T03:55:50;100.80;;;34.28;;
57443;SDS011;43289;52.962;6.196;2023-06-22T03:58:16;57.95;;;25.88;;
57443;SDS011;43289;52.962;6.196;2023-06-22T04:00:44;62.78;;;26.33;;
57443;SDS011;43289;52.962;6.196;2023-06-22T04:03:10;69.30;;;30.83;;
57443;SDS011;43289;52.962;6.196;2023-06-22T04:05:37;49.30;;;28.85;;
57443;SDS011;43289;52.962;6.196;2023-06-22T04:08:04;63.03;;;31.52;;
57443;SDS011;43289;52.962;6.196;2023-06-22T04:10:30;63.13;;;29.80;;
57443;SDS011;43289;52.962;6.196;2023-06-22T04:12:56;49.67;;;28.15;;
57443;SDS011;43289;52.962;6.196;2023-06-22T04:15:22;47.10;;;26.02;;
57443;SDS011;43289;52.962;6.196;2023-06-22T04:17:48;27.80;;;23.25;;
57443;SDS011;43289;52.962;6.196;2023-06-22T04:20:14;40.40;;;26.73;;
57443;SDS011;43289;52.962;6.196;2023-06-22T04:22:40;26.38;;;23.17;;
57443;SDS011;43289;52.962;6.196;2023-06-22T04:25:06;37.80;;;24.00;;
57443;SDS011;43289;52.962;6.196;2023-06-22T04:27:35;28.23;;;22.60;;
57443;SDS011;43289;52.962;6.196;2023-06-22T04:30:05;23.25;;;20.95;;
57443;SDS011;43289;52.962;6.196;2023-06-22T04:32:32;25.48;;;22.77;;
57443;SDS011;43289;52.962;6.196;2023-06-22T04:34:58;24.48;;;21.90;;
57443;SDS011;43289;52.962;6.196;2023-06-22T04:37:25;28.95;;;22.42;;
57443;SDS011;43289;52.962;6.196;2023-06-22T04:43:14;38.58;;;29.60;;
57443;SDS011;43289;52.962;6.196;2023-06-22T04:45:40;36.45;;;27.95;;
57443;SDS011;43289;52.962;6.196;2023-06-22T04:48:06;35.40;;;28.70;;
57443;SDS011;43289;52.962;6.196;2023-06-22T04:50:33;33.05;;;27.23;;
57443;SDS011;43289;52.962;6.196;2023-06-22T04:52:59;30.63;;;26.35;;
57443;SDS011;43289;52.962;6.196;2023-06-22T04:55:30;32.30;;;26.05;;
57443;SDS011;43289;52.962;6.196;2023-06-22T04:57:56;28.38;;;25.38;;
57443;SDS011;43289;52.962;6.196;2023-06-22T05:00:29;32.67;;;27.83;;
57443;SDS011;43289;52.962;6.196;2023-06-22T05:02:55;41.35;;;31.55;;
57443;SDS011;43289;52.962;6.196;2023-06-22T05:05:23;35.42;;;29.65;;
57443;SDS011;43289;52.962;6.196;2023-06-22T05:07:56;39.97;;;31.50;;
57443;SDS011;43289;52.962;6.196;2023-06-22T05:10:25;36.45;;;30.10;;
57443;SDS011;43289;52.962;6.196;2023-06-22T05:12:51;36.92;;;31.98;;
57443;SDS011;43289;52.962;6.196;2023-06-22T05:15:17;34.95;;;30.52;;
57443;SDS011;43289;52.962;6.196;2023-06-22T05:17:48;44.10;;;34.83;;
57443;SDS011;43289;52.962;6.196;2023-06-22T05:20:14;42.08;;;34.00;;
57443;SDS011;43289;52.962;6.196;2023-06-22T05:22:42;42.28;;;36.30;;
57443;SDS011;43289;52.962;6.196;2023-06-22T05:25:09;44.17;;;36.90;;
57443;SDS011;43289;52.962;6.196;2023-06-22T05:27:35;38.58;;;32.92;;
57443;SDS011;43289;52.962;6.196;2023-06-22T05:30:09;44.25;;;36.10;;
57443;SDS011;43289;52.962;6.196;2023-06-22T05:32:36;38.53;;;31.48;;
57443;SDS011;43289;52.962;6.196;2023-06-22T05:35:03;41.88;;;35.92;;
57443;SDS011;43289;52.962;6.196;2023-06-22T05:37:29;39.00;;;34.42;;
57443;SDS011;43289;52.962;6.196;2023-06-22T05:39:55;44.25;;;37.13;;
57443;SDS011;43289;52.962;6.196;2023-06-22T05:42:22;38.22;;;31.33;;
57443;SDS011;43289;52.962;6.196;2023-06-22T05:44:47;35.58;;;31.83;;
57443;SDS011;43289;52.962;6.196;2023-06-22T05:47:13;40.15;;;35.17;;
57443;SDS011;43289;52.962;6.196;2023-06-22T05:49:39;33.40;;;29.80;;
57443;SDS011;43289;52.962;6.196;2023-06-22T05:52:04;32.38;;;28.67;;
57443;SDS011;43289;52.962;6.196;2023-06-22T05:54:30;33.38;;;29.33;;
57443;SDS011;43289;52.962;6.196;2023-06-22T05:56:56;33.78;;;30.38;;
57443;SDS011;43289;52.962;6.196;2023-06-22T05:59:21;31.80;;;28.45;;
57443;SDS011;43289;52.962;6.196;2023-06-22T06:01:47;30.98;;;27.77;;
57443;SDS011;43289;52.962;6.196;2023-06-22T06:04:19;31.58;;;27.67;;
57443;SDS011;43289;52.962;6.196;2023-06-22T06:06:45;31.83;;;28.63;;
57443;SDS011;43289;52.962;6.196;2023-06-22T06:09:14;28.67;;;24.10;;
57443;SDS011;43289;52.962;6.196;2023-06-22T06:11:40;24.98;;;22.02;;
57443;SDS011;43289;52.962;6.196;2023-06-22T06:14:06;26.80;;;24.00;;
57443;SDS011;43289;52.962;6.196;2023-06-22T06:16:32;25.83;;;23.15;;
57443;SDS011;43289;52.962;6.196;2023-06-22T06:18:58;24.98;;;22.27;;
57443;SDS011;43289;52.962;6.196;2023-06-22T06:21:24;22.42;;;20.13;;
57443;SDS011;43289;52.962;6.196;2023-06-22T06:23:50;24.88;;;22.38;;
57443;SDS011;43289;52.962;6.196;2023-06-22T06:26:15;23.77;;;21.38;;
57443;SDS011;43289;52.962;6.196;2023-06-22T06:28:42;26.30;;;22.50;;
57443;SDS011;43289;52.962;6.196;2023-06-22T06:31:08;22.77;;;20.48;;
57443;SDS011;43289;52.962;6.196;2023-06-22T06:33:34;21.33;;;19.05;;
57443;SDS011;43289;52.962;6.196;2023-06-22T06:36:00;21.40;;;18.55;;
57443;SDS011;43289;52.962;6.196;2023-06-22T06:38:28;22.02;;;19.83;;
57443;SDS011;43289;52.962;6.196;2023-06-22T06:40:54;20.80;;;18.30;;
57443;SDS011;43289;52.962;6.196;2023-06-22T06:43:20;21.67;;;17.13;;
57443;SDS011;43289;52.962;6.196;2023-06-22T06:45:46;22.50;;;20.20;;
57443;SDS011;43289;52.962;6.196;2023-06-22T06:48:12;21.80;;;19.42;;
57443;SDS011;43289;52.962;6.196;2023-06-22T06:50:38;20.70;;;18.42;;
57443;SDS011;43289;52.962;6.196;2023-06-22T06:53:04;19.60;;;17.52;;
57443;SDS011;43289;52.962;6.196;2023-06-22T06:55:31;18.90;;;16.83;;
57443;SDS011;43289;52.962;6.196;2023-06-22T06:57:58;19.92;;;16.70;;
57443;SDS011;43289;52.962;6.196;2023-06-22T07:00:24;19.92;;;16.83;;
57443;SDS011;43289;52.962;6.196;2023-06-22T07:02:51;17.80;;;16.02;;
57443;SDS011;43289;52.962;6.196;2023-06-22T07:05:17;19.38;;;16.80;;
57443;SDS011;43289;52.962;6.196;2023-06-22T07:07:43;19.30;;;17.30;;
57443;SDS011;43289;52.962;6.196;2023-06-22T07:10:09;17.90;;;15.80;;
57443;SDS011;43289;52.962;6.196;2023-06-22T07:12:35;19.25;;;17.23;;
57443;SDS011;43289;52.962;6.196;2023-06-22T07:15:05;17.80;;;15.40;;
57443;SDS011;43289;52.962;6.196;2023-06-22T07:17:33;18.23;;;16.38;;
57443;SDS011;43289;52.962;6.196;2023-06-22T07:19:59;17.25;;;15.25;;
57443;SDS011;43289;52.962;6.196;2023-06-22T07:22:25;16.70;;;14.93;;
57443;SDS011;43289;52.962;6.196;2023-06-22T07:24:51;18.58;;;16.67;;
57443;SDS011;43289;52.962;6.196;2023-06-22T07:27:16;19.20;;;17.15;;
57443;SDS011;43289;52.962;6.196;2023-06-22T07:29:44;19.48;;;17.10;;
57443;SDS011;43289;52.962;6.196;2023-06-22T07:32:09;18.10;;;16.05;;
57443;SDS011;43289;52.962;6.196;2023-06-22T07:34:35;17.40;;;15.63;;
57443;SDS011;43289;52.962;6.196;2023-06-22T07:37:01;19.08;;;15.55;;
57443;SDS011;43289;52.962;6.196;2023-06-22T07:39:27;16.30;;;14.57;;
57443;SDS011;43289;52.962;6.196;2023-06-22T07:41:53;18.90;;;15.15;;
57443;SDS011;43289;52.962;6.196;2023-06-22T07:44:18;20.00;;;16.73;;
57443;SDS011;43289;52.962;6.196;2023-06-22T07:46:44;19.55;;;16.40;;
57443;SDS011;43289;52.962;6.196;2023-06-22T07:49:10;17.77;;;14.82;;
57443;SDS011;43289;52.962;6.196;2023-06-22T07:51:35;19.15;;;16.60;;
57443;SDS011;43289;52.962;6.196;2023-06-22T07:54:01;17.67;;;15.80;;
57443;SDS011;43289;52.962;6.196;2023-06-22T07:56:27;16.77;;;14.73;;
57443;SDS011;43289;52.962;6.196;2023-06-22T07:58:52;19.30;;;15.60;;
57443;SDS011;43289;52.962;6.196;2023-06-22T08:01:18;17.20;;;15.30;;
57443;SDS011;43289;52.962;6.196;2023-06-22T08:03:46;18.20;;;14.65;;
57443;SDS011;43289;52.962;6.196;2023-06-22T08:06:13;16.02;;;13.93;;
57443;SDS011;43289;52.962;6.196;2023-06-22T08:08:39;17.25;;;14.68;;
57443;SDS011;43289;52.962;6.196;2023-06-22T08:11:05;16.25;;;14.52;;
57443;SDS011;43289;52.962;6.196;2023-06-22T08:13:31;16.05;;;14.35;;
57443;SDS011;43289;52.962;6.196;2023-06-22T08:15:57;15.18;;;13.45;;
57443;SDS011;43289;52.962;6.196;2023-06-22T08:18:23;16.40;;;14.15;;
57443;SDS011;43289;52.962;6.196;2023-06-22T08:20:48;17.70;;;13.95;;
57443;SDS011;43289;52.962;6.196;2023-06-22T08:23:14;15.38;;;12.68;;
57443;SDS011;43289;52.962;6.196;2023-06-22T08:25:40;14.82;;;11.98;;
57443;SDS011;43289;52.962;6.196;2023-06-22T08:28:06;14.15;;;12.40;;
57443;SDS011;43289;52.962;6.196;2023-06-22T08:30:32;16.13;;;13.68;;
57443;SDS011;43289;52.962;6.196;2023-06-22T08:32:57;15.15;;;12.10;;
57443;SDS011;43289;52.962;6.196;2023-06-22T08:35:25;13.25;;;11.63;;
57443;SDS011;43289;52.962;6.196;2023-06-22T08:37:50;14.85;;;13.38;;
57443;SDS011;43289;52.962;6.196;2023-06-22T08:43:25;12.23;;;10.15;;
57443;SDS011;43289;52.962;6.196;2023-06-22T08:45:51;18.20;;;11.95;;
57443;SDS011;43289;52.962;6.196;2023-06-22T08:48:17;15.05;;;13.13;;
57443;SDS011;43289;52.962;6.196;2023-06-22T08:50:42;14.93;;;12.88;;
57443;SDS011;43289;52.962;6.196;2023-06-22T08:53:08;14.45;;;12.50;;
57443;SDS011;43289;52.962;6.196;2023-06-22T08:55:33;14.40;;;11.85;;
57443;SDS011;43289;52.962;6.196;2023-06-22T08:57:59;15.50;;;12.10;;
57443;SDS011;43289;52.962;6.196;2023-06-22T09:00:24;15.52;;;11.73;;
57443;SDS011;43289;52.962;6.196;2023-06-22T09:02:50;14.23;;;12.63;;
57443;SDS011;43289;52.962;6.196;2023-06-22T09:05:16;13.27;;;11.57;;
57443;SDS011;43289;52.962;6.196;2023-06-22T09:07:41;12.90;;;10.43;;
57443;SDS011;43289;52.962;6.196;2023-06-22T09:10:08;13.52;;;11.32;;
57443;SDS011;43289;52.962;6.196;2023-06-22T09:12:33;14.18;;;10.02;;
57443;SDS011;43289;52.962;6.196;2023-06-22T09:15:01;12.25;;;10.93;;
57443;SDS011;43289;52.962;6.196;2023-06-22T09:17:28;14.25;;;11.23;;
57443;SDS011;43289;52.962;6.196;2023-06-22T09:19:54;12.90;;;10.75;;
57443;SDS011;43289;52.962;6.196;2023-06-22T09:22:19;12.82;;;10.98;;
57443;SDS011;43289;52.962;6.196;2023-06-22T09:24:45;15.20;;;10.50;;
57443;SDS011;43289;52.962;6.196;2023-06-22T09:27:11;11.45;;;9.80;;
57443;SDS011;43289;52.962;6.196;2023-06-22T09:29:36;12.93;;;10.43;;
57443;SDS011;43289;52.962;6.196;2023-06-22T09:32:13;9.60;;;8.27;;
57443;SDS011;43289;52.962;6.196;2023-06-22T09:34:39;10.80;;;8.10;;
57443;SDS011;43289;52.962;6.196;2023-06-22T09:37:05;14.50;;;9.52;;
57443;SDS011;43289;52.962;6.196;2023-06-22T09:39:30;11.23;;;9.02;;
57443;SDS011;43289;52.962;6.196;2023-06-22T09:41:57;8.82;;;7.93;;
57443;SDS011;43289;52.962;6.196;2023-06-22T09:44:25;9.60;;;8.05;;
57443;SDS011;43289;52.962;6.196;2023-06-22T09:46:51;10.75;;;8.57;;
57443;SDS011;43289;52.962;6.196;2023-06-22T09:49:16;13.45;;;8.27;;
57443;SDS011;43289;52.962;6.196;2023-06-22T09:51:42;10.73;;;8.18;;
57443;SDS011;43289;52.962;6.196;2023-06-22T09:54:07;10.98;;;7.65;;
57443;SDS011;43289;52.962;6.196;2023-06-22T09:56:33;11.98;;;8.75;;
57443;SDS011;43289;52.962;6.196;2023-06-22T09:58:59;12.18;;;8.38;;
57443;SDS011;43289;52.962;6.196;2023-06-22T10:01:24;8.57;;;7.68;;
57443;SDS011;43289;52.962;6.196;2023-06-22T10:03:53;8.45;;;6.82;;
57443;SDS011;43289;52.962;6.196;2023-06-22T10:06:22;9.40;;;6.70;;
57443;SDS011;43289;52.962;6.196;2023-06-22T10:08:48;8.70;;;7.65;;
57443;SDS011;43289;52.962;6.196;2023-06-22T10:11:14;9.38;;;7.20;;
57443;SDS011;43289;52.962;6.196;2023-06-22T10:13:40;8.55;;;7.57;;
57443;SDS011;43289;52.962;6.196;2023-06-22T10:16:06;9.70;;;6.72;;
57443;SDS011;43289;52.962;6.196;2023-06-22T10:18:32;8.93;;;6.80;;
57443;SDS011;43289;52.962;6.196;2023-06-22T10:20:57;7.45;;;5.88;;
57443;SDS011;43289;52.962;6.196;2023-06-22T10:23:23;7.75;;;5.97;;
57443;SDS011;43289;52.962;6.196;2023-06-22T10:25:49;8.07;;;6.32;;
57443;SDS011;43289;52.962;6.196;2023-06-22T10:28:14;6.30;;;5.35;;
57443;SDS011;43289;52.962;6.196;2023-06-22T10:30:40;10.55;;;7.32;;
57443;SDS011;43289;52.962;6.196;2023-06-22T10:33:06;10.00;;;6.78;;
57443;SDS011;43289;52.962;6.196;2023-06-22T10:35:33;9.60;;;6.78;;
57443;SDS011;43289;52.962;6.196;2023-06-22T10:37:58;8.48;;;6.28;;
57443;SDS011;43289;52.962;6.196;2023-06-22T10:40:24;8.05;;;6.25;;
57443;SDS011;43289;52.962;6.196;2023-06-22T10:42:50;7.35;;;5.68;;
57443;SDS011;43289;52.962;6.196;2023-06-22T10:45:16;8.40;;;6.63;;
57443;SDS011;43289;52.962;6.196;2023-06-22T10:47:41;6.68;;;5.47;;
57443;SDS011;43289;52.962;6.196;2023-06-22T10:50:09;8.27;;;6.15;;
57443;SDS011;43289;52.962;6.196;2023-06-22T10:52:34;5.82;;;4.65;;
57443;SDS011;43289;52.962;6.196;2023-06-22T10:55:00;7.20;;;5.07;;
57443;SDS011;43289;52.962;6.196;2023-06-22T10:57:26;8.57;;;4.93;;
57443;SDS011;43289;52.962;6.196;2023-06-22T10:59:51;7.88;;;4.93;;
57443;SDS011;43289;52.962;6.196;2023-06-22T11:02:17;7.53;;;5.68;;
57443;SDS011;43289;52.962;6.196;2023-06-22T11:04:43;10.77;;;6.05;;
57443;SDS011;43289;52.962;6.196;2023-06-22T11:07:08;14.88;;;5.32;;
57443;SDS011;43289;52.962;6.196;2023-06-22T11:09:34;7.82;;;5.40;;
57443;SDS011;43289;52.962;6.196;2023-06-22T11:12:00;10.48;;;5.30;;
57443;SDS011;43289;52.962;6.196;2023-06-22T11:14:26;7.82;;;6.43;;
57443;SDS011;43289;52.962;6.196;2023-06-22T11:16:51;7.38;;;5.30;;
57443;SDS011;43289;52.962;6.196;2023-06-22T11:19:17;6.57;;;3.95;;
57443;SDS011;43289;52.962;6.196;2023-06-22T11:21:43;8.05;;;4.63;;
57443;SDS011;43289;52.962;6.196;2023-06-22T11:24:09;6.40;;;4.63;;
57443;SDS011;43289;52.962;6.196;2023-06-22T11:26:34;8.43;;;5.07;;
57443;SDS011;43289;52.962;6.196;2023-06-22T11:29:00;6.68;;;5.07;;
57443;SDS011;43289;52.962;6.196;2023-06-22T11:31:26;7.93;;;4.90;;
57443;SDS011;43289;52.962;6.196;2023-06-22T11:33:51;7.63;;;5.10;;
57443;SDS011;43289;52.962;6.196;2023-06-22T11:36:17;9.15;;;4.80;;
57443;SDS011;43289;52.962;6.196;2023-06-22T11:38:43;8.05;;;4.78;;
57443;SDS011;43289;52.962;6.196;2023-06-22T11:41:09;7.95;;;4.70;;
57443;SDS011;43289;52.962;6.196;2023-06-22T11:43:35;6.32;;;4.80;;
57443;SDS011;43289;52.962;6.196;2023-06-22T11:46:02;8.70;;;4.78;;
57443;SDS011;43289;52.962;6.196;2023-06-22T11:48:28;6.28;;;4.40;;
57443;SDS011;43289;52.962;6.196;2023-06-22T11:50:54;6.13;;;4.78;;
57443;SDS011;43289;52.962;6.196;2023-06-22T11:53:24;5.43;;;4.32;;
57443;SDS011;43289;52.962;6.196;2023-06-22T11:55:51;7.85;;;5.25;;
57443;SDS011;43289;52.962;6.196;2023-06-22T11:58:17;6.07;;;4.28;;
57443;SDS011;43289;52.962;6.196;2023-06-22T12:00:43;5.75;;;4.32;;
57443;SDS011;43289;52.962;6.196;2023-06-22T12:03:10;6.03;;;4.70;;
57443;SDS011;43289;52.962;6.196;2023-06-22T12:05:37;7.45;;;4.25;;
57443;SDS011;43289;52.962;6.196;2023-06-22T12:08:03;13.13;;;5.00;;
57443;SDS011;43289;52.962;6.196;2023-06-22T12:10:28;6.72;;;4.15;;
57443;SDS011;43289;52.962;6.196;2023-06-22T12:12:54;7.15;;;5.03;;
57443;SDS011;43289;52.962;6.196;2023-06-22T12:15:20;6.45;;;4.10;;
57443;SDS011;43289;52.962;6.196;2023-06-22T12:17:45;6.30;;;4.20;;
57443;SDS011;43289;52.962;6.196;2023-06-22T12:20:13;6.88;;;4.47;;
57443;SDS011;43289;52.962;6.196;2023-06-22T12:22:38;6.43;;;4.85;;
57443;SDS011;43289;52.962;6.196;2023-06-22T12:25:04;7.38;;;5.25;;
57443;SDS011;43289;52.962;6.196;2023-06-22T12:27:30;7.65;;;5.57;;
57443;SDS011;43289;52.962;6.196;2023-06-22T12:29:56;6.65;;;5.20;;
57443;SDS011;43289;52.962;6.196;2023-06-22T12:32:21;10.18;;;5.72;;
57443;SDS011;43289;52.962;6.196;2023-06-22T12:34:47;6.32;;;4.90;;
57443;SDS011;43289;52.962;6.196;2023-06-22T12:37:12;10.27;;;4.72;;
57443;SDS011;43289;52.962;6.196;2023-06-22T12:39:40;6.88;;;5.30;;
57443;SDS011;43289;52.962;6.196;2023-06-22T12:42:06;5.75;;;4.88;;
57443;SDS011;43289;52.962;6.196;2023-06-22T12:44:34;7.32;;;4.45;;
57443;SDS011;43289;52.962;6.196;2023-06-22T12:47:00;7.85;;;5.10;;
57443;SDS011;43289;52.962;6.196;2023-06-22T12:49:25;7.18;;;5.13;;
57443;SDS011;43289;52.962;6.196;2023-06-22T12:51:51;7.63;;;4.90;;
57443;SDS011;43289;52.962;6.196;2023-06-22T12:54:16;9.73;;;4.65;;
57443;SDS011;43289;52.962;6.196;2023-06-22T12:56:42;8.43;;;5.32;;
57443;SDS011;43289;52.962;6.196;2023-06-22T12:59:10;6.72;;;5.05;;
57443;SDS011;43289;52.962;6.196;2023-06-22T13:01:35;11.07;;;5.85;;
57443;SDS011;43289;52.962;6.196;2023-06-22T13:04:02;7.68;;;5.25;;
57443;SDS011;43289;52.962;6.196;2023-06-22T13:06:28;9.80;;;6.00;;
57443;SDS011;43289;52.962;6.196;2023-06-22T13:08:54;9.65;;;5.90;;
57443;SDS011;43289;52.962;6.196;2023-06-22T13:11:19;8.07;;;5.63;;
57443;SDS011;43289;52.962;6.196;2023-06-22T13:13:45;6.30;;;5.00;;
57443;SDS011;43289;52.962;6.196;2023-06-22T13:16:11;6.93;;;5.55;;
57443;SDS011;43289;52.962;6.196;2023-06-22T13:18:37;6.53;;;5.38;;
57443;SDS011;43289;52.962;6.196;2023-06-22T13:21:02;8.88;;;6.20;;
57443;SDS011;43289;52.962;6.196;2023-06-22T13:23:28;7.80;;;5.85;;
57443;SDS011;43289;52.962;6.196;2023-06-22T13:25:54;9.13;;;5.88;;
57443;SDS011;43289;52.962;6.196;2023-06-22T13:28:19;8.98;;;5.90;;
57443;SDS011;43289;52.962;6.196;2023-06-22T13:30:45;7.78;;;5.28;;
57443;SDS011;43289;52.962;6.196;2023-06-22T13:33:12;8.02;;;5.18;;
57443;SDS011;43289;52.962;6.196;2023-06-22T13:35:38;10.10;;;5.88;;
57443;SDS011;43289;52.962;6.196;2023-06-22T13:38:04;8.45;;;5.20;;
57443;SDS011;43289;52.962;6.196;2023-06-22T13:40:30;7.95;;;5.43;;
57443;SDS011;43289;52.962;6.196;2023-06-22T13:42:55;8.02;;;6.45;;
57443;SDS011;43289;52.962;6.196;2023-06-22T13:45:21;7.68;;;5.53;;
57443;SDS011;43289;52.962;6.196;2023-06-22T13:47:47;10.15;;;6.50;;
57443;SDS011;43289;52.962;6.196;2023-06-22T13:50:13;8.38;;;6.82;;
57443;SDS011;43289;52.962;6.196;2023-06-22T13:52:38;9.27;;;6.47;;
57443;SDS011;43289;52.962;6.196;2023-06-22T13:55:04;10.18;;;6.50;;
57443;SDS011;43289;52.962;6.196;2023-06-22T13:57:31;7.75;;;6.32;;
57443;SDS011;43289;52.962;6.196;2023-06-22T13:59:58;9.57;;;5.95;;
57443;SDS011;43289;52.962;6.196;2023-06-22T14:02:23;10.68;;;6.47;;
57443;SDS011;43289;52.962;6.196;2023-06-22T14:04:51;8.18;;;6.60;;
57443;SDS011;43289;52.962;6.196;2023-06-22T14:07:16;8.07;;;6.65;;
57443;SDS011;43289;52.962;6.196;2023-06-22T14:09:44;7.68;;;6.70;;
57443;SDS011;43289;52.962;6.196;2023-06-22T14:12:10;9.10;;;6.57;;
57443;SDS011;43289;52.962;6.196;2023-06-22T14:14:36;8.98;;;6.10;;
57443;SDS011;43289;52.962;6.196;2023-06-22T14:17:01;10.52;;;6.65;;
57443;SDS011;43289;52.962;6.196;2023-06-22T14:19:28;7.78;;;6.60;;
57443;SDS011;43289;52.962;6.196;2023-06-22T14:21:53;10.43;;;6.82;;
57443;SDS011;43289;52.962;6.196;2023-06-22T14:24:19;9.45;;;6.53;;
57443;SDS011;43289;52.962;6.196;2023-06-22T14:26:45;10.63;;;7.05;;
57443;SDS011;43289;52.962;6.196;2023-06-22T14:29:10;8.68;;;6.72;;
57443;SDS011;43289;52.962;6.196;2023-06-22T14:31:36;10.30;;;7.72;;
57443;SDS011;43289;52.962;6.196;2023-06-22T14:34:01;8.30;;;7.10;;
57443;SDS011;43289;52.962;6.196;2023-06-22T14:36:28;8.80;;;6.72;;
57443;SDS011;43289;52.962;6.196;2023-06-22T14:38:54;8.50;;;6.57;;
57443;SDS011;43289;52.962;6.196;2023-06-22T14:41:19;8.30;;;6.32;;
57443;SDS011;43289;52.962;6.196;2023-06-22T14:43:45;9.50;;;7.10;;
57443;SDS011;43289;52.962;6.196;2023-06-22T14:46:12;8.95;;;6.25;;
57443;SDS011;43289;52.962;6.196;2023-06-22T14:48:39;8.38;;;5.97;;
57443;SDS011;43289;52.962;6.196;2023-06-22T14:54:16;9.57;;;6.47;;
57443;SDS011;43289;52.962;6.196;2023-06-22T14:56:41;9.38;;;6.35;;
57443;SDS011;43289;52.962;6.196;2023-06-22T14:59:08;9.02;;;6.95;;